Time;durP1;ratioP1;P1;durP2;ratioP2;P2;SDS_P1;SDS_P2;PMS_P1;PMS_P2;Temp;Humidity;BMP_temperature;BMP_pressure;BME280_temperature;BME280_humidity;BME280_pressure;Samples;Min_cycle;Max_cycle;Signal;HPM_P1;HPM_P2
2022/10/07 00:01:33;;;;;;;16.80;7.37;;;;;;;17.44;60.44;99993.03;4488064;32;20131;-85
2022/10/07 00:03:59;;;;;;;15.27;7.18;;;;;;;17.42;60.48;99990.50;4488046;32;20120;-86
2022/10/07 00:06:24;;;;;;;14.73;6.62;;;;;;;17.42;60.41;99986.97;4488155;32;20099;-85
2022/10/07 00:08:51;;;;;;;16.05;7.40;;;;;;;17.43;60.34;99981.53;4488145;32;20088;-85
2022/10/07 00:11:17;;;;;;;14.30;7.15;;;;;;;17.38;60.43;99983.63;4473681;32;20444;-85
2022/10/07 00:13:44;;;;;;;14.23;7.40;;;;;;;17.36;60.45;99976.72;4473593;32;20188;-85
2022/10/07 00:16:16;;;;;;;14.27;7.30;;;;;;;17.37;60.38;99978.44;4487781;32;20475;-86
2022/10/07 00:18:41;;;;;;;15.68;7.65;;;;;;;17.24;60.47;99981.00;4460594;32;20092;-85
2022/10/07 00:21:10;;;;;;;16.08;7.78;;;;;;;17.30;60.17;99989.44;4487659;32;20140;-85
2022/10/07 00:23:36;;;;;;;14.73;7.80;;;;;;;17.28;60.13;99988.69;4473441;32;20164;-85
2022/10/07 00:26:04;;;;;;;16.17;7.90;;;;;;;17.29;60.07;99976.25;4487920;32;20142;-86
2022/10/07 00:28:29;;;;;;;15.25;7.40;;;;;;;17.30;59.94;99977.94;4473417;32;20130;-85
2022/10/07 00:30:59;;;;;;;14.75;7.82;;;;;;;17.40;59.50;99975.56;4487724;32;20144;-85
2022/10/07 00:33:25;;;;;;;14.87;7.60;;;;;;;17.28;59.77;99979.84;4460363;32;20108;-85
2022/10/07 00:35:50;;;;;;;14.48;7.57;;;;;;;17.25;59.70;99983.56;4487815;32;20123;-84
2022/10/07 00:38:16;;;;;;;14.30;6.95;;;;;;;17.29;59.55;99976.25;4487797;32;20088;-85
2022/10/07 00:40:41;;;;;;;15.25;7.53;;;;;;;17.29;59.51;99971.78;4487415;32;20107;-85
2022/10/07 00:43:23;;;;;;;15.13;7.80;;;;;;;17.28;59.63;99966.53;4487817;32;20368;-85
2022/10/07 00:45:49;;;;;;;16.52;8.23;;;;;;;17.33;59.63;99969.78;4487624;32;20617;-85
2022/10/07 00:48:19;;;;;;;14.25;7.45;;;;;;;17.30;59.70;99964.63;4473353;32;20451;-85
2022/10/07 00:50:47;;;;;;;17.85;7.62;;;;;;;17.23;60.05;99958.84;4473406;32;20083;-85
2022/10/07 00:53:12;;;;;;;16.55;7.53;;;;;;;17.26;59.94;99963.13;4487637;32;20100;-85
2022/10/07 00:55:38;;;;;;;17.80;8.18;;;;;;;17.27;59.83;99963.03;4487641;32;20080;-86
2022/10/07 00:58:08;;;;;;;17.02;7.87;;;;;;;17.23;60.00;99972.16;4473180;32;20149;-85
2022/10/07 01:00:34;;;;;;;13.90;7.53;;;;;;;17.15;60.37;99965.59;4487486;32;20084;-85
2022/10/07 01:03:00;;;;;;;15.55;7.95;;;;;;;17.19;60.18;99959.12;4487485;32;20395;-85
2022/10/07 01:05:25;;;;;;;15.60;7.70;;;;;;;17.17;60.23;99953.03;4487497;32;20093;-85
2022/10/07 01:07:51;;;;;;;17.73;8.75;;;;;;;17.19;60.17;99956.47;4487476;32;20084;-85
2022/10/07 01:10:18;;;;;;;16.70;8.55;;;;;;;17.14;60.27;99967.41;4473249;32;20136;-85
2022/10/07 01:12:55;;;;;;;;;;;;;;;16.86;61.36;99963.81;4473830;32;20391;-85
2022/10/07 01:15:31;;;;;;;18.15;9.50;;;;;;;17.12;60.64;99964.00;4460306;32;20006;-85
2022/10/07 01:18:29;;;;;;;18.73;9.18;;;;;;;16.57;62.62;99967.38;4487483;32;20447;-85
2022/10/07 01:21:09;;;;;;;20.10;9.10;;;;;;;16.74;62.07;99961.88;4459114;32;20088;-85
2022/10/07 01:24:07;;;;;;;15.25;8.50;;;;;;;16.94;61.13;99952.72;4473204;32;20100;-85
2022/10/07 01:26:41;;;;;;;19.52;9.48;;;;;;;16.98;60.88;99954.22;4407652;32;20145;-87
2022/10/07 01:29:32;;;;;;;17.25;9.50;;;;;;;16.96;60.91;99961.44;4395206;32;20108;-87
2022/10/07 01:32:03;;;;;;;19.40;10.00;;;;;;;16.98;60.92;99958.66;4407850;32;20567;-88
2022/10/07 01:34:31;;;;;;;16.73;9.43;;;;;;;16.88;61.15;99958.38;4382457;32;20664;-88
2022/10/07 01:36:56;;;;;;;;;;;;;;;16.94;60.97;99951.81;4382844;32;20178;-88
2022/10/07 01:39:26;;;;;;;18.67;9.35;;;;;;;16.98;60.88;99962.22;4395076;32;19997;-85
2022/10/07 01:41:52;;;;;;;18.67;10.05;;;;;;;16.88;61.09;99953.94;4395284;32;20125;-85
2022/10/07 01:44:17;;;;;;;18.12;9.98;;;;;;;16.81;61.18;99968.53;4395163;32;20363;-85
2022/10/07 01:46:43;;;;;;;20.77;10.98;;;;;;;16.88;60.90;99958.38;4407873;32;20153;-85
2022/10/07 01:49:09;;;;;;;17.60;9.70;;;;;;;16.68;61.59;99965.75;4407851;32;20142;-84
2022/10/07 01:52:04;;;;;;;18.23;10.07;;;;;;;16.80;61.09;99953.50;4407823;32;20180;-84
2022/10/07 01:54:44;;;;;;;19.08;10.93;;;;;;;16.81;61.02;99952.56;4407736;32;20786;-84
2022/10/07 01:57:37;;;;;;;18.87;11.00;;;;;;;16.79;61.00;99954.47;4407650;32;20132;-84
2022/10/07 02:00:11;;;;;;;21.45;11.85;;;;;;;16.52;61.97;99957.00;4407428;32;20545;-85
2022/10/07 02:03:05;;;;;;;17.58;10.80;;;;;;;16.65;61.46;99951.78;4424839;32;20111;-85
2022/10/07 02:05:46;;;;;;;18.75;11.38;;;;;;;16.62;61.48;99955.50;4473244;32;20677;-84
2022/10/07 02:08:21;;;;;;;20.62;12.10;;;;;;;16.58;61.61;99951.31;4487138;32;20084;-84
2022/10/07 02:11:05;;;;;;;21.00;10.93;;;;;;;16.50;61.76;99957.09;4487008;32;20171;-84
2022/10/07 02:13:33;;;;;;;19.83;11.15;;;;;;;16.64;61.20;99952.75;4472773;32;20535;-84
2022/10/07 02:16:16;;;;;;;19.87;11.43;;;;;;;16.63;61.02;99957.22;4487136;32;20164;-84
2022/10/07 02:18:44;;;;;;;19.48;10.98;;;;;;;16.70;60.87;99955.87;4487172;32;20118;-84
2022/10/07 02:21:10;;;;;;;17.80;10.45;;;;;;;16.63;60.91;99954.56;4472088;32;20115;-84
2022/10/07 02:23:37;;;;;;;17.87;11.20;;;;;;;16.64;60.81;99956.25;4472549;32;20106;-84
2022/10/07 02:26:04;;;;;;;18.35;10.80;;;;;;;16.63;60.96;99951.91;4472851;32;20134;-84
2022/10/07 02:28:29;;;;;;;20.92;11.38;;;;;;;16.64;60.80;99947.44;4486827;32;20118;-84
2022/10/07 02:30:59;;;;;;;18.02;11.32;;;;;;;16.62;60.75;99946.66;4472473;32;20096;-85
2022/10/07 02:33:28;;;;;;;17.20;10.85;;;;;;;16.62;60.72;99939.53;4472679;32;20123;-84
2022/10/07 02:35:56;;;;;;;18.58;10.82;;;;;;;16.62;60.66;99936.88;4472581;32;20104;-84
2022/10/07 02:38:22;;;;;;;19.23;11.35;;;;;;;16.61;60.58;99937.84;4472739;32;20176;-84
2022/10/07 02:40:50;;;;;;;19.70;11.00;;;;;;;16.51;60.72;99937.53;4472489;32;20091;-84
2022/10/07 02:43:43;;;;;;;20.05;11.55;;;;;;;16.52;60.69;99944.56;4486701;32;20084;-84
2022/10/07 02:46:12;;;;;;;20.83;11.43;;;;;;;16.55;60.57;99934.69;4464492;32;20100;-84
2022/10/07 02:48:41;;;;;;;17.20;10.45;;;;;;;16.50;60.59;99935.81;4472529;32;20100;-84
2022/10/07 02:51:08;;;;;;;17.83;10.57;;;;;;;16.53;60.41;99937.44;4472543;32;20491;-84
2022/10/07 02:53:34;;;;;;;18.33;11.12;;;;;;;16.51;60.35;99940.22;4472525;32;20119;-84
2022/10/07 02:56:01;;;;;;;21.77;11.70;;;;;;;16.43;60.51;99936.28;4472399;32;20112;-84
2022/10/07 02:58:26;;;;;;;19.50;11.55;;;;;;;16.42;60.50;99932.78;4472391;32;20112;-85
2022/10/07 03:00:57;;;;;;;20.85;12.00;;;;;;;16.41;60.48;99935.53;4486474;32;20412;-84
2022/10/07 03:03:24;;;;;;;17.65;10.75;;;;;;;16.41;60.35;99940.84;4486477;32;20120;-84
2022/10/07 03:05:50;;;;;;;17.35;10.32;;;;;;;16.44;60.07;99930.03;4486535;32;20104;-85
2022/10/07 03:08:16;;;;;;;17.48;10.82;;;;;;;16.44;60.02;99940.66;4486404;32;20104;-85
2022/10/07 03:10:42;;;;;;;21.92;12.15;;;;;;;16.41;60.02;99938.19;4486746;32;20124;-85
2022/10/07 03:13:07;;;;;;;19.17;11.63;;;;;;;16.25;60.35;99936.44;4486573;32;20141;-83
2022/10/07 03:15:36;;;;;;;17.52;10.55;;;;;;;16.33;60.05;99937.78;4486655;32;20093;-84
2022/10/07 03:18:02;;;;;;;18.73;10.85;;;;;;;16.36;59.84;99938.47;4472371;32;20176;-84
2022/10/07 03:20:29;;;;;;;17.40;11.43;;;;;;;16.33;59.89;99935.13;4472047;32;20088;-84
2022/10/07 03:22:54;;;;;;;18.90;11.90;;;;;;;16.35;59.78;99938.56;4486218;32;20436;-85
2022/10/07 03:25:20;;;;;;;20.62;12.20;;;;;;;16.35;59.72;99925.25;4472075;32;20200;-85
2022/10/07 03:27:47;;;;;;;18.55;11.98;;;;;;;16.32;59.80;99936.91;4471872;32;20125;-85
2022/10/07 03:30:12;;;;;;;19.37;11.20;;;;;;;16.35;59.66;99930.59;4486209;32;20111;-85
2022/10/07 03:32:38;;;;;;;18.12;10.88;;;;;;;16.35;59.58;99931.44;4486109;32;20109;-85
2022/10/07 03:35:04;;;;;;;16.80;11.20;;;;;;;16.31;59.61;99928.09;4488144;32;20096;-85
2022/10/07 03:37:29;;;;;;;20.88;11.40;;;;;;;16.34;59.52;99932.41;4488222;32;20157;-85
2022/10/07 03:39:55;;;;;;;18.80;11.77;;;;;;;16.32;59.49;99928.94;4473929;32;20161;-84
2022/10/07 03:42:20;;;;;;;17.05;10.85;;;;;;;16.30;59.57;99930.84;4488007;32;20088;-85
2022/10/07 03:44:48;;;;;;;17.62;10.68;;;;;;;16.22;59.79;99933.94;4488102;32;20123;-84
2022/10/07 03:47:17;;;;;;;16.87;10.68;;;;;;;16.25;59.64;99935.59;4488075;32;20131;-85
2022/10/07 03:49:43;;;;;;;17.90;11.65;;;;;;;16.20;59.62;99933.19;4488036;32;20092;-84
2022/10/07 03:52:09;;;;;;;19.37;11.25;;;;;;;16.23;59.35;99932.19;4487995;32;20420;-84
2022/10/07 03:54:34;;;;;;;19.25;11.60;;;;;;;16.15;59.63;99927.31;4473854;32;20178;-84
2022/10/07 03:56:59;;;;;;;19.10;11.98;;;;;;;16.06;60.00;99933.16;4487926;32;20132;-84
2022/10/07 03:59:25;;;;;;;20.10;11.40;;;;;;;16.17;59.59;99936.06;4473637;32;20084;-84
2022/10/07 04:01:50;;;;;;;17.37;11.50;;;;;;;16.24;59.35;99926.75;4487926;32;20186;-85
2022/10/07 04:04:16;;;;;;;17.70;11.12;;;;;;;16.25;59.42;99924.97;4487826;32;20500;-84
2022/10/07 04:06:42;;;;;;;17.37;11.00;;;;;;;16.28;59.23;99915.00;4487979;32;20096;-84
2022/10/07 04:09:10;;;;;;;18.67;10.77;;;;;;;16.27;59.24;99910.63;4473790;32;20092;-84
2022/10/07 04:11:39;;;;;;;;;;;;;;;16.27;59.22;99912.44;4473880;32;20353;-86
2022/10/07 04:14:04;;;;;;;18.27;11.07;;;;;;;16.37;59.00;99915.38;4487967;32;20287;-85
2022/10/07 04:16:30;;;;;;;17.98;11.50;;;;;;;16.32;59.04;99913.00;4473579;32;20097;-86
2022/10/07 04:18:56;;;;;;;16.37;11.23;;;;;;;16.21;59.37;99908.34;4487827;32;20136;-87
2022/10/07 04:21:22;;;;;;;17.02;10.50;;;;;;;16.25;59.24;99916.97;4473565;32;20133;-87
2022/10/07 04:23:47;;;;;;;19.45;10.70;;;;;;;16.22;59.24;99906.53;4488004;32;20092;-86
2022/10/07 04:26:13;;;;;;;17.25;11.10;;;;;;;16.22;59.22;99899.38;4473865;32;20369;-86
2022/10/07 04:28:38;;;;;;;18.70;10.77;;;;;;;16.26;59.07;99900.06;4488012;32;20396;-87
2022/10/07 04:31:06;;;;;;;19.85;10.50;;;;;;;16.19;59.18;99902.25;4473759;32;20087;-87
2022/10/07 04:33:31;;;;;;;16.70;10.43;;;;;;;16.04;59.28;99900.50;4487726;32;20119;-87
2022/10/07 04:36:05;;;;;;;18.08;10.70;;;;;;;16.18;58.80;99908.50;4487782;32;20093;-89
2022/10/07 04:38:31;;;;;;;17.48;10.88;;;;;;;16.23;58.65;99910.91;4487812;32;20166;-88
2022/10/07 04:40:57;;;;;;;19.10;10.60;;;;;;;16.24;58.49;99904.63;4487924;32;20506;-86
2022/10/07 04:43:23;;;;;;;18.58;10.30;;;;;;;16.19;58.44;99906.72;4487594;32;20103;-87
2022/10/07 04:45:51;;;;;;;18.10;10.27;;;;;;;16.10;58.64;99910.78;4487428;32;20108;-86
2022/10/07 04:48:18;;;;;;;15.65;9.75;;;;;;;16.07;58.77;99903.84;4473259;32;20084;-86
2022/10/07 04:50:44;;;;;;;18.13;9.63;;;;;;;15.84;59.55;99913.16;4487710;32;20136;-86
2022/10/07 04:53:13;;;;;;;16.60;10.02;;;;;;;15.98;59.23;99919.47;4473303;32;20112;-84
2022/10/07 04:55:46;;;;;;;17.77;9.73;;;;;;;16.02;59.18;99919.19;4487622;32;20531;-84
2022/10/07 04:58:13;;;;;;;16.92;9.65;;;;;;;16.17;58.73;99916.56;4487494;32;20387;-85
2022/10/07 05:00:43;;;;;;;17.70;9.48;;;;;;;16.22;58.59;99917.16;4473179;32;20093;-89
2022/10/07 05:03:09;;;;;;;15.25;9.82;;;;;;;16.29;58.52;99911.38;4487655;32;20436;-87
2022/10/07 05:05:38;;;;;;;18.00;9.70;;;;;;;16.26;58.58;99910.69;4490348;31;20092;-87
2022/10/07 05:08:03;;;;;;;16.70;9.50;;;;;;;16.24;58.86;99912.59;4479957;32;20076;-88
2022/10/07 05:10:28;;;;;;;22.10;11.12;;;;;;;16.32;58.69;99918.31;4487331;32;20106;-88
2022/10/07 05:12:54;;;;;;;15.80;10.25;;;;;;;16.15;59.42;99919.34;4473015;32;20148;-89
2022/10/07 05:15:19;;;;;;;16.40;9.82;;;;;;;16.30;58.98;99928.19;4487588;32;20084;-86
2022/10/07 05:17:45;;;;;;;14.95;9.38;;;;;;;16.31;59.00;99925.44;4473117;32;20364;-88
2022/10/07 05:20:11;;;;;;;15.32;9.55;;;;;;;16.36;58.98;99932.28;4480454;31;20149;-88
2022/10/07 05:22:36;;;;;;;15.38;9.32;;;;;;;16.40;58.89;99936.47;4488734;31;20156;-94
2022/10/07 05:25:02;;;;;;;16.77;9.15;;;;;;;16.52;58.50;99927.75;4501380;31;20152;-93
2022/10/07 05:27:27;;;;;;;16.00;9.57;;;;;;;16.46;58.63;99934.31;4501666;31;20567;-93
2022/10/07 05:29:53;;;;;;;16.98;9.35;;;;;;;16.37;58.89;99940.16;4502047;31;20378;-92
2022/10/07 05:32:18;;;;;;;16.50;9.52;;;;;;;16.52;58.45;99931.25;4502796;31;20112;-89
2022/10/07 05:34:43;;;;;;;16.62;9.07;;;;;;;16.68;58.28;99930.31;4503111;31;20321;-88
2022/10/07 05:37:10;;;;;;;16.05;9.02;;;;;;;16.80;58.28;99932.22;4503067;31;20136;-88
2022/10/07 05:39:36;;;;;;;15.75;9.35;;;;;;;16.91;58.19;99928.94;4503036;31;20075;-90
2022/10/07 05:42:01;;;;;;;15.30;9.18;;;;;;;17.00;58.07;99927.50;4503124;31;20152;-90
2022/10/07 05:44:30;;;;;;;16.08;9.15;;;;;;;17.07;57.79;99924.37;4502974;31;20098;-91
2022/10/07 05:46:56;;;;;;;15.00;8.27;;;;;;;17.23;57.34;99926.03;4503005;31;20110;-92
2022/10/07 05:49:22;;;;;;;16.10;8.63;;;;;;;17.35;57.16;99924.41;4503043;31;20072;-94
2022/10/07 05:51:47;;;;;;;16.48;9.05;;;;;;;17.41;56.95;99929.34;4504184;31;20096;-90
2022/10/07 05:54:13;;;;;;;14.23;8.43;;;;;;;17.54;56.55;99929.38;4503112;31;20092;-92
2022/10/07 05:56:39;;;;;;;15.65;9.05;;;;;;;17.64;56.21;99927.84;4502277;31;20328;-92
2022/10/07 05:59:04;;;;;;;12.95;7.78;;;;;;;17.74;55.99;99920.94;4503097;31;20127;-88
2022/10/07 06:01:30;;;;;;;17.42;9.20;;;;;;;17.85;55.88;99930.94;4502912;31;20087;-84
2022/10/07 06:03:56;;;;;;;15.63;8.43;;;;;;;17.68;56.18;99930.19;4502897;31;20214;-88
2022/10/07 06:06:22;;;;;;;14.57;8.27;;;;;;;17.81;55.83;99932.91;4491885;31;20090;-88
2022/10/07 06:08:48;;;;;;;13.75;7.65;;;;;;;17.96;55.85;99935.53;4488463;31;20123;-93
2022/10/07 06:14:00;;;;;;;16.58;8.25;;;;;;;18.17;55.84;99939.41;4503100;31;20121;-92
2022/10/07 06:16:25;;;;;;;16.27;8.52;;;;;;;18.24;55.32;99937.19;4491053;31;20151;-96
2022/10/07 06:18:52;;;;;;;14.90;8.52;;;;;;;18.27;55.33;99935.19;4483337;26;20093;-95
2022/10/07 06:24:32;;;;;;;14.52;7.68;;;;;;;18.50;54.97;99942.56;4455358;32;20153;-93
2022/10/07 06:26:58;;;;;;;14.45;7.97;;;;;;;18.47;55.04;99933.78;4455765;32;20076;-92
2022/10/07 06:29:23;;;;;;;15.65;8.13;;;;;;;18.53;55.20;99932.53;4455663;32;20104;-93
2022/10/07 06:31:49;;;;;;;14.43;8.07;;;;;;;18.62;54.86;99939.91;4458184;32;20081;-96
2022/10/07 06:39:45;;;;;;;16.12;7.82;;;;;;;18.67;54.57;99939.56;1062174;30;20381;-78
2022/10/07 06:45:20;;;;;;;14.63;8.10;;;;;;;18.95;54.05;99926.97;4476292;27;20091;-91
2022/10/07 06:47:45;;;;;;;14.65;7.95;;;;;;;18.76;54.47;99930.91;4467886;32;20096;-96
2022/10/07 06:50:11;;;;;;;14.75;8.55;;;;;;;18.28;56.22;99920.00;4457408;32;20083;-90
2022/10/07 06:52:36;;;;;;;14.40;8.10;;;;;;;18.26;56.46;99921.94;4472687;26;20112;-88
2022/10/07 06:55:02;;;;;;;17.95;8.15;;;;;;;18.58;55.29;99925.06;4440488;32;20089;-83
2022/10/07 06:57:27;;;;;;;18.45;9.10;;;;;;;18.84;54.98;99922.41;4440445;32;20112;-91
2022/10/07 06:59:53;;;;;;;16.87;8.80;;;;;;;18.47;55.63;99927.63;4440666;32;20434;-92
2022/10/07 07:02:19;;;;;;;16.62;8.60;;;;;;;18.85;55.15;99937.44;4441658;32;20105;-94
2022/10/07 07:04:44;;;;;;;15.88;8.50;;;;;;;18.97;54.37;99930.41;4440352;32;20099;-93
2022/10/07 07:07:10;;;;;;;17.98;9.27;;;;;;;19.09;54.00;99931.34;4440170;32;20502;-94
2022/10/07 07:09:36;;;;;;;14.73;8.20;;;;;;;19.17;53.53;99929.81;4455127;26;20239;-96
2022/10/07 07:12:02;;;;;;;14.77;8.20;;;;;;;19.27;52.77;99924.66;4456321;32;20105;-86
2022/10/07 07:14:27;;;;;;;17.90;8.57;;;;;;;19.16;53.23;99935.25;4454244;32;20093;-86
2022/10/07 07:16:53;;;;;;;14.75;8.77;;;;;;;19.21;53.56;99925.09;4454954;32;20104;-87
2022/10/07 07:19:18;;;;;;;16.27;9.60;;;;;;;19.39;53.00;99925.56;4453282;32;20361;-87
2022/10/07 07:21:44;;;;;;;16.08;9.50;;;;;;;19.41;53.06;99931.66;4453544;32;20093;-87
2022/10/07 07:24:09;;;;;;;17.42;9.48;;;;;;;19.27;53.09;99921.97;4453841;32;20109;-87
2022/10/07 07:26:36;;;;;;;17.35;9.48;;;;;;;19.43;52.94;99930.59;4454940;32;20128;-86
2022/10/07 07:29:04;;;;;;;20.62;10.90;;;;;;;19.51;52.76;99924.69;4454948;32;20085;-86
2022/10/07 07:31:32;;;;;;;16.45;10.00;;;;;;;19.24;52.89;99928.41;4453831;32;20128;-87
2022/10/07 07:34:00;;;;;;;20.02;9.45;;;;;;;19.37;52.88;99927.50;4454969;32;20472;-87
2022/10/07 07:36:28;;;;;;;19.20;9.80;;;;;;;19.52;52.62;99920.19;4453782;32;20562;-87
2022/10/07 07:38:59;;;;;;;15.68;9.23;;;;;;;19.52;52.85;99921.03;4454752;32;20152;-86
2022/10/07 07:41:30;;;;;;;16.50;9.60;;;;;;;19.63;52.59;99914.91;4453790;32;20114;-86
2022/10/07 07:43:57;;;;;;;16.92;9.63;;;;;;;19.49;52.50;99917.72;4453528;32;20201;-86
2022/10/07 07:46:25;;;;;;;17.25;9.23;;;;;;;19.60;52.47;99915.97;4454792;32;20135;-87
2022/10/07 07:48:52;;;;;;;16.85;9.00;;;;;;;19.44;52.81;99921.59;4454685;32;20138;-87
2022/10/07 07:51:18;;;;;;;16.35;9.30;;;;;;;19.62;52.49;99913.19;4453375;32;20113;-87
2022/10/07 07:53:45;;;;;;;15.15;8.40;;;;;;;19.79;52.27;99914.66;4454698;32;20088;-87
2022/10/07 07:56:11;;;;;;;18.77;8.90;;;;;;;19.71;52.04;99917.84;4453367;32;20089;-86
2022/10/07 07:58:37;;;;;;;17.52;8.85;;;;;;;19.71;52.02;99915.19;4454600;32;20101;-87
2022/10/07 08:01:04;;;;;;;15.85;8.30;;;;;;;19.60;52.82;99915.13;4454549;32;20131;-86
2022/10/07 08:03:30;;;;;;;13.65;6.70;;;;;;;19.87;51.72;99924.75;4454402;32;20540;-86
2022/10/07 08:06:00;;;;;;;14.45;8.10;;;;;;;19.63;50.59;99917.59;4453301;32;20085;-88
2022/10/07 08:08:26;;;;;;;15.60;7.30;;;;;;;19.77;51.17;99916.59;4453254;32;20138;-86
2022/10/07 08:10:51;;;;;;;16.95;7.68;;;;;;;19.42;51.89;99918.19;4454216;32;20101;-87
2022/10/07 08:13:17;;;;;;;14.15;6.72;;;;;;;19.75;51.43;99907.81;4454112;32;20085;-87
2022/10/07 08:15:42;;;;;;;13.05;6.57;;;;;;;19.84;51.49;99909.81;4454221;32;20109;-87
2022/10/07 08:18:08;;;;;;;13.30;6.62;;;;;;;19.93;51.27;99908.25;4454327;32;20085;-87
2022/10/07 08:20:35;;;;;;;12.40;6.30;;;;;;;19.96;50.51;99910.72;4455973;32;20433;-88
2022/10/07 08:23:02;;;;;;;15.02;7.07;;;;;;;20.03;50.50;99907.44;4455323;32;20163;-88
2022/10/07 08:25:28;;;;;;;13.10;7.50;;;;;;;19.77;51.08;99913.91;4456648;32;20080;-87
2022/10/07 08:27:54;;;;;;;13.18;7.00;;;;;;;19.29;51.87;99913.84;4455319;32;20183;-87
2022/10/07 08:30:19;;;;;;;12.23;6.12;;;;;;;19.17;52.18;99915.59;4456607;32;20468;-87
2022/10/07 08:32:44;;;;;;;14.50;6.65;;;;;;;19.35;52.12;99916.91;4456516;32;20098;-87
2022/10/07 08:35:10;;;;;;;12.43;6.28;;;;;;;19.68;51.40;99907.38;4456401;32;20488;-88
2022/10/07 08:37:35;;;;;;;13.98;6.85;;;;;;;19.91;51.23;99904.84;4456319;32;20115;-88
2022/10/07 08:40:01;;;;;;;14.43;6.47;;;;;;;20.02;50.83;99905.72;4456440;32;20384;-87
2022/10/07 08:42:32;;;;;;;16.60;7.93;;;;;;;19.94;50.28;99907.28;4456575;32;20096;-88
2022/10/07 08:44:58;;;;;;;14.40;7.28;;;;;;;19.79;50.72;99903.94;4455276;32;20152;-87
2022/10/07 08:47:42;;;;;;;14.82;7.18;;;;;;;19.91;50.35;99897.66;4455386;32;20101;-88
2022/10/07 08:50:24;;;;;;;14.25;7.95;;;;;;;19.77;51.84;99893.34;4455254;32;20093;-87
2022/10/07 08:52:52;;;;;;;14.60;7.05;;;;;;;19.87;51.20;99895.34;4455312;32;20101;-89
2022/10/07 08:55:38;;;;;;;15.32;7.93;;;;;;;20.00;51.26;99894.28;4455098;32;20089;-88
2022/10/07 08:58:22;;;;;;;14.85;7.93;;;;;;;20.11;50.69;99887.25;4455509;32;20130;-88
2022/10/07 09:00:59;;;;;;;14.75;7.15;;;;;;;19.93;50.63;99886.84;4456396;32;20097;-87
2022/10/07 09:03:39;;;;;;;16.73;8.83;;;;;;;20.10;50.54;99885.56;4456181;32;20072;-87
2022/10/07 09:06:12;;;;;;;17.25;8.02;;;;;;;19.18;52.51;99891.47;4456394;32;20089;-88
2022/10/07 09:08:41;;;;;;;15.35;8.40;;;;;;;19.73;52.07;99885.69;4455182;32;20077;-87
2022/10/07 09:11:18;;;;;;;15.02;8.30;;;;;;;19.84;52.12;99877.72;4454892;32;20136;-87
2022/10/07 09:13:50;;;;;;;15.60;8.80;;;;;;;20.02;51.44;99873.63;4456350;32;20166;-87
2022/10/07 09:16:19;;;;;;;15.38;7.87;;;;;;;20.19;51.12;99879.53;4456326;32;20158;-88
2022/10/07 09:18:49;;;;;;;16.40;8.88;;;;;;;20.18;51.32;99877.81;4455114;32;20077;-88
2022/10/07 09:21:22;;;;;;;17.23;8.65;;;;;;;20.35;51.00;99873.81;4455029;32;20124;-88
2022/10/07 09:23:54;;;;;;;15.68;8.55;;;;;;;20.45;50.58;99872.13;4456191;32;20101;-88
2022/10/07 09:26:20;;;;;;;16.58;8.52;;;;;;;20.46;50.60;99871.16;4456265;32;20085;-87
2022/10/07 09:28:45;;;;;;;14.98;8.60;;;;;;;20.42;50.65;99869.72;4456198;32;20395;-87
2022/10/07 09:31:13;;;;;;;16.05;8.65;;;;;;;20.28;51.18;99870.78;4453672;32;20424;-89
2022/10/07 09:33:44;;;;;;;15.98;7.78;;;;;;;20.30;51.71;99858.13;4455072;32;20105;-87
2022/10/07 09:36:12;;;;;;;14.75;8.88;;;;;;;20.52;51.20;99851.09;4454939;32;20085;-88
2022/10/07 09:38:41;;;;;;;;;;;;;;;20.58;51.01;99858.63;4456417;32;20163;-87
2022/10/07 09:41:16;;;;;;;15.32;8.90;;;;;;;20.71;50.26;99847.84;4454969;32;19984;-88
2022/10/07 09:44:06;;;;;;;15.38;8.50;;;;;;;20.74;50.55;99845.75;4455943;32;20112;-89
2022/10/07 09:46:46;;;;;;;17.30;8.80;;;;;;;20.81;50.17;99838.94;4454833;32;20119;-87
2022/10/07 09:49:29;;;;;;;19.98;7.45;;;;;;;20.55;50.49;99838.31;4455989;32;20429;-89
2022/10/07 09:52:05;;;;;;;13.60;7.45;;;;;;;20.43;51.53;99840.13;4454897;32;20457;-87
2022/10/07 09:54:35;;;;;;;15.52;7.50;;;;;;;20.67;50.79;99830.28;4454911;32;20092;-87
2022/10/07 09:57:03;;;;;;;13.75;7.85;;;;;;;20.81;50.27;99828.22;4454766;32;20114;-88
2022/10/07 09:59:35;;;;;;;15.45;7.32;;;;;;;20.76;50.84;99825.06;4456023;32;20123;-89
2022/10/07 10:02:13;;;;;;;16.12;8.25;;;;;;;20.88;50.87;99814.34;4456043;32;20127;-88
2022/10/07 10:04:46;;;;;;;19.00;7.82;;;;;;;21.11;50.22;99810.66;4455888;32;20089;-88
2022/10/07 10:07:26;;;;;;;15.48;8.05;;;;;;;21.08;50.13;99812.72;4455997;32;20085;-87
2022/10/07 10:09:54;;;;;;;16.87;8.63;;;;;;;20.95;49.79;99811.03;4441535;32;20089;-87
2022/10/07 10:12:21;;;;;;;14.23;8.10;;;;;;;20.73;49.99;99809.25;4454730;32;20105;-87
2022/10/07 10:14:54;;;;;;;16.13;7.53;;;;;;;20.55;50.46;99808.88;4455994;32;20113;-88
2022/10/07 10:17:21;;;;;;;16.27;8.55;;;;;;;20.78;50.58;99808.88;4454784;32;20080;-88
2022/10/07 10:19:46;;;;;;;15.70;8.68;;;;;;;20.94;50.14;99798.62;4455910;32;20631;-87
2022/10/07 10:22:26;;;;;;;15.57;7.68;;;;;;;20.94;49.98;99800.47;4454616;32;20461;-87
2022/10/07 10:28:03;;;;;;;13.45;6.82;;;;;;;20.57;51.32;99793.53;4455788;32;20383;-88
2022/10/07 10:30:29;;;;;;;13.35;6.50;;;;;;;20.89;51.17;99786.59;4455719;32;20081;-88
2022/10/07 10:33:23;;;;;;;14.40;6.95;;;;;;;21.02;50.68;99785.44;4454621;32;20384;-88
2022/10/07 10:35:53;;;;;;;13.77;6.37;;;;;;;21.28;49.96;99784.25;4454646;32;20561;-88
2022/10/07 10:38:44;;;;;;;11.18;5.47;;;;;;;21.38;49.83;99777.16;4454537;32;20535;-87
2022/10/07 10:41:42;;;;;;;12.63;5.85;;;;;;;21.32;49.76;99777.66;4454809;32;20108;-87
2022/10/07 10:44:32;;;;;;;11.57;4.45;;;;;;;21.37;49.47;99770.09;4409528;32;20125;-89
2022/10/07 10:47:26;;;;;;;11.73;4.32;;;;;;;21.54;49.60;99766.88;4422600;32;20102;-88
2022/10/07 10:50:41;;;;;;;8.88;3.40;;;;;;;21.67;47.51;99758.66;4422575;32;20115;-88
2022/10/07 10:53:18;;;;;;;9.88;3.42;;;;;;;21.66;46.99;99756.94;4362424;32;20103;-88
2022/10/07 10:56:05;;;;;;;8.70;3.60;;;;;;;21.51;47.16;99751.03;4362144;32;20111;-88
2022/10/07 10:58:59;;;;;;;9.57;3.05;;;;;;;21.63;46.94;99750.97;4362108;32;20146;-89
2022/10/07 11:01:39;;;;;;;8.05;3.17;;;;;;;21.62;46.35;99738.56;4357724;32;20095;-88
2022/10/07 11:04:07;;;;;;;9.40;3.45;;;;;;;21.66;46.07;99748.91;4362044;32;20103;-88
2022/10/07 11:06:36;;;;;;;10.80;3.50;;;;;;;21.67;46.00;99741.69;4361882;32;20149;-88
2022/10/07 11:09:02;;;;;;;12.50;4.22;;;;;;;21.77;45.67;99731.91;4349379;32;20468;-88
2022/10/07 11:11:28;;;;;;;10.05;4.03;;;;;;;21.81;46.17;99725.28;4361777;32;20404;-87
2022/10/07 11:14:12;;;;;;;8.50;3.25;;;;;;;21.84;46.11;99725.00;4361666;32;20134;-88
2022/10/07 11:17:04;;;;;;;10.75;3.83;;;;;;;21.79;45.44;99714.69;4361837;32;20131;-88
2022/10/07 11:19:33;;;;;;;9.65;3.33;;;;;;;21.82;46.23;99712.72;4359527;32;20107;-89
2022/10/07 11:21:59;;;;;;;9.48;3.53;;;;;;;21.79;45.91;99708.47;4405059;32;20085;-88
2022/10/07 11:24:29;;;;;;;8.60;3.47;;;;;;;21.90;45.25;99702.16;4444174;32;20129;-87
2022/10/07 11:27:08;;;;;;;8.77;3.33;;;;;;;21.98;43.93;99699.66;4455141;32;20085;-88
2022/10/07 11:29:52;;;;;;;9.27;3.42;;;;;;;22.05;43.95;99699.97;4453910;32;20127;-88
2022/10/07 11:32:44;;;;;;;10.75;3.75;;;;;;;21.92;44.53;99692.12;4455028;32;20111;-88
2022/10/07 11:35:52;;;;;;;9.93;3.60;;;;;;;21.95;45.21;99689.19;4454982;32;20135;-88
2022/10/07 11:38:21;;;;;;;10.25;4.03;;;;;;;22.08;45.80;99679.09;4409028;32;20098;-88
2022/10/07 11:40:59;;;;;;;10.77;4.25;;;;;;;22.05;45.63;99676.66;4409075;32;20147;-88
2022/10/07 11:43:29;;;;;;;10.13;3.78;;;;;;;22.06;46.19;99675.69;4408826;32;20089;-88
2022/10/07 11:46:02;;;;;;;10.95;3.95;;;;;;;22.19;46.11;99664.69;4409067;32;20086;-88
2022/10/07 11:48:59;;;;;;;9.32;4.03;;;;;;;22.13;46.28;99670.63;4421664;32;20133;-87
2022/10/07 11:51:29;;;;;;;9.43;3.50;;;;;;;22.36;45.52;99666.75;4421508;32;20109;-88
2022/10/07 11:53:56;;;;;;;10.18;3.80;;;;;;;22.26;45.01;99659.69;4408905;32;20086;-88
2022/10/07 11:56:25;;;;;;;12.02;3.78;;;;;;;22.09;45.96;99653.94;4423596;32;20575;-88